createdAt,value
2023-02-14T00:01:16.625Z,1.45
2023-02-14T00:04:23.749Z,1.24
2023-02-14T00:07:29.798Z,1.45
2023-02-14T00:10:36.628Z,1.41
2023-02-14T00:14:03.109Z,1.34
2023-02-14T00:17:10.005Z,1.51
2023-02-14T00:20:15.930Z,1.52
2023-02-14T00:23:22.604Z,1.63
2023-02-14T00:26:28.466Z,1.67
2023-02-14T00:29:36.783Z,1.54
2023-02-14T00:32:46.570Z,1.46
2023-02-14T00:35:53.406Z,1.49
2023-02-14T00:39:00.026Z,1.61
2023-02-14T00:42:07.044Z,1.63
2023-02-14T00:45:13.569Z,1.61
2023-02-14T00:48:23.291Z,1.66
2023-02-14T00:51:30.047Z,1.62
2023-02-14T00:54:36.943Z,1.58
2023-02-14T00:57:44.837Z,1.51
2023-02-14T01:00:51.534Z,1.52
2023-02-14T01:04:01.987Z,1.41
2023-02-14T01:07:08.728Z,1.57
2023-02-14T01:10:15.584Z,1.50
2023-02-14T01:13:23.273Z,1.50
2023-02-14T01:16:33.372Z,1.59
2023-02-14T01:19:42.677Z,1.62
2023-02-14T01:22:48.604Z,1.65
2023-02-14T01:25:55.288Z,1.60
2023-02-14T01:29:01.119Z,1.56
2023-02-14T01:32:09.123Z,1.51
2023-02-14T01:35:17.856Z,1.46
2023-02-14T01:38:24.559Z,1.49
2023-02-14T01:41:34.295Z,1.46
2023-02-14T01:45:03.397Z,1.43
2023-02-14T01:48:13.855Z,1.35
2023-02-14T01:51:24.975Z,1.38
2023-02-14T01:54:41.757Z,1.45
2023-02-14T01:57:57.228Z,1.48
2023-02-14T02:01:03.586Z,1.42
2023-02-14T02:04:20.016Z,1.35
2023-02-14T02:07:33.081Z,1.26
2023-02-14T02:10:39.821Z,1.35
2023-02-14T02:13:46.631Z,1.35
2023-02-14T02:17:24.096Z,1.34
2023-02-14T02:21:08.453Z,1.46
2023-02-14T02:24:35.410Z,1.43
2023-02-14T02:28:13.436Z,1.40
2023-02-14T02:31:47.708Z,1.40
2023-02-14T02:35:48.846Z,1.41
2023-02-14T02:39:15.804Z,1.48
2023-02-14T02:42:40.228Z,1.49
2023-02-14T02:46:14.062Z,1.51
2023-02-14T02:49:52.442Z,1.35
2023-02-14T02:53:15.124Z,1.36
2023-02-14T02:56:43.981Z,1.45
2023-02-14T02:59:55.217Z,1.53
2023-02-14T03:03:15.815Z,1.59
2023-02-14T03:06:22.032Z,1.63
2023-02-14T03:10:00.920Z,1.29
2023-02-14T03:13:56.333Z,1.55
2023-02-14T03:17:32.937Z,1.53
2023-02-14T03:21:02.452Z,1.46
2023-02-14T03:24:20.866Z,1.53
2023-02-14T03:27:38.330Z,1.51
2023-02-14T03:31:00.342Z,1.28
2023-02-14T03:34:19.902Z,1.36
2023-02-14T03:37:38.194Z,1.24
2023-02-14T03:40:54.904Z,1.28
2023-02-14T03:44:13.029Z,1.36
2023-02-14T03:47:27.175Z,1.43
2023-02-14T03:50:37.735Z,1.45
2023-02-14T03:53:52.078Z,1.49
2023-02-14T03:57:16.185Z,1.44
2023-02-14T04:00:29.561Z,1.46
2023-02-14T04:03:45.392Z,1.45
2023-02-14T04:06:51.637Z,1.44
2023-02-14T04:09:58.408Z,1.43
2023-02-14T04:13:07.786Z,1.47
2023-02-14T04:16:17.255Z,1.50
2023-02-14T04:19:23.668Z,1.49
2023-02-14T04:22:35.272Z,1.45
2023-02-14T04:25:43.351Z,1.46
2023-02-14T04:28:50.144Z,1.48
2023-02-14T04:31:58.689Z,1.53
2023-02-14T04:35:08.818Z,1.53
2023-02-14T04:38:14.891Z,1.42
2023-02-14T04:41:21.552Z,1.43
2023-02-14T04:44:27.832Z,1.40
2023-02-14T04:47:37.217Z,1.47
2023-02-14T04:50:47.612Z,1.37
2023-02-14T04:53:54.362Z,1.44
2023-02-14T04:57:00.346Z,1.45
2023-02-14T05:00:12.221Z,1.45
2023-02-14T05:03:20.673Z,1.50
2023-02-14T05:06:34.571Z,1.49
2023-02-14T05:09:40.575Z,1.43
2023-02-14T05:12:47.333Z,1.30
2023-02-14T05:15:53.608Z,1.42
2023-02-14T05:19:02.950Z,1.38
2023-02-14T05:22:08.911Z,1.40
2023-02-14T05:25:15.527Z,1.35
2023-02-14T05:28:22.565Z,1.26
2023-02-14T05:31:29.339Z,1.23
2023-02-14T05:34:38.189Z,1.17
2023-02-14T05:37:46.929Z,1.17
2023-02-14T05:40:52.915Z,1.17
2023-02-14T05:43:59.619Z,1.08
2023-02-14T05:47:05.721Z,1.08
2023-02-14T05:50:15.402Z,1.08
2023-02-14T05:53:21.441Z,1.06
2023-02-14T05:56:28.296Z,1.04
2023-02-14T05:59:34.148Z,1.04
2023-02-14T06:02:40.793Z,1.02
2023-02-14T06:05:49.252Z,0.96
2023-02-14T06:08:56.136Z,0.98
2023-02-14T06:12:01.944Z,1.13
2023-02-14T06:15:10.117Z,1.18
2023-02-14T06:18:16.079Z,1.19
2023-02-14T06:21:25.622Z,1.17
2023-02-14T06:24:31.743Z,1.16
2023-02-14T06:27:38.503Z,1.23
2023-02-14T06:30:45.506Z,1.18
2023-02-14T06:33:52.515Z,1.22
2023-02-14T06:37:01.077Z,1.29
2023-02-14T06:40:10.164Z,1.32
2023-02-14T06:43:16.173Z,1.30
2023-02-14T06:46:23.218Z,1.31
2023-02-14T06:49:29.316Z,1.27
2023-02-14T06:52:38.706Z,1.20
2023-02-14T06:55:45.437Z,1.10
2023-02-14T06:58:52.202Z,1.28
2023-02-14T07:01:58.029Z,1.34
2023-02-14T07:05:04.820Z,1.25
2023-02-14T07:08:13.347Z,1.19
2023-02-14T07:11:20.044Z,1.23
2023-02-14T07:14:26.290Z,1.32
2023-02-14T07:17:32.953Z,1.42
2023-02-14T07:20:38.997Z,1.41
2023-02-14T07:23:50.214Z,1.49
2023-02-14T07:26:56.134Z,1.63
2023-02-14T07:30:02.898Z,1.62
2023-02-14T07:33:08.960Z,1.63
2023-02-14T07:36:15.782Z,1.60
2023-02-14T07:39:24.377Z,1.63
2023-02-14T07:42:31.332Z,1.69
2023-02-14T07:45:37.900Z,1.61
2023-02-14T07:48:44.569Z,1.54
2023-02-14T07:51:50.554Z,1.44
2023-02-14T07:54:59.894Z,1.46
2023-02-14T07:58:05.946Z,1.62
2023-02-14T08:01:12.806Z,1.69
2023-02-14T08:04:18.720Z,1.67
2023-02-14T08:07:25.592Z,1.81
2023-02-14T08:10:34.188Z,2.01
2023-02-14T08:13:41.016Z,1.99
2023-02-14T08:16:46.871Z,1.75
2023-02-14T08:19:53.616Z,1.80
2023-02-14T08:22:59.967Z,1.93
2023-02-14T08:26:09.872Z,1.90
2023-02-14T08:29:16.907Z,1.98
2023-02-14T08:32:23.903Z,2.02
2023-02-14T08:35:29.925Z,2.15
2023-02-14T08:38:36.615Z,2.13
2023-02-14T08:41:45.082Z,2.15
2023-02-14T08:44:51.770Z,2.21
2023-02-14T08:47:57.722Z,2.32
2023-02-14T08:51:09.746Z,2.32
2023-02-14T08:54:16.146Z,2.24
2023-02-14T08:57:25.482Z,2.30
2023-02-14T09:00:31.438Z,2.23
2023-02-14T09:03:38.606Z,2.28
2023-02-14T09:06:44.704Z,2.41
2023-02-14T09:09:51.438Z,2.35
2023-02-14T09:12:59.868Z,2.47
2023-02-14T09:16:08.642Z,2.59
2023-02-14T09:19:15.007Z,2.81
2023-02-14T09:22:23.365Z,2.71
2023-02-14T09:25:29.191Z,2.82
2023-02-14T09:28:39.577Z,2.78
2023-02-14T09:31:45.819Z,2.99
2023-02-14T09:34:52.733Z,3.12
2023-02-14T09:37:58.774Z,2.83
2023-02-14T09:41:11.402Z,2.76
2023-02-14T09:44:34.602Z,3.06
2023-02-14T09:47:54.257Z,3.17
2023-02-14T09:51:06.730Z,3.16
2023-02-14T09:54:22.200Z,3.33
2023-02-14T09:57:46.800Z,3.51
2023-02-14T10:01:09.870Z,3.16
2023-02-14T10:04:39.648Z,3.45
2023-02-14T10:08:11.423Z,3.32
2023-02-14T10:11:24.951Z,3.17
2023-02-14T10:14:41.189Z,3.50
2023-02-14T10:17:57.030Z,3.83
2023-02-14T10:21:08.163Z,4.14
2023-02-14T10:24:24.458Z,4.00
2023-02-14T10:27:39.884Z,4.14
2023-02-14T10:31:03.985Z,4.23
2023-02-14T10:34:24.189Z,4.01
2023-02-14T10:38:00.147Z,4.06
2023-02-14T10:41:35.770Z,4.08
2023-02-14T10:44:58.964Z,4.29
2023-02-14T10:48:26.528Z,4.23
2023-02-14T10:51:48.280Z,4.10
2023-02-14T10:55:03.183Z,3.98
2023-02-14T10:58:16.337Z,3.84
2023-02-14T11:01:23.544Z,3.81
2023-02-14T11:04:33.547Z,3.62
2023-02-14T11:07:42.877Z,3.81
2023-02-14T11:10:49.851Z,3.84
2023-02-14T11:13:57.122Z,3.84
2023-02-14T11:17:23.168Z,3.83
2023-02-14T11:20:32.581Z,3.65
2023-02-14T11:23:44.312Z,3.65
2023-02-14T11:26:57.729Z,3.80
2023-02-14T11:30:03.901Z,3.84
2023-02-14T11:33:25.876Z,3.69
2023-02-14T11:36:34.873Z,3.94
2023-02-14T11:39:44.696Z,3.83
2023-02-14T11:42:54.632Z,3.70
2023-02-14T11:46:28.281Z,3.68
2023-02-14T11:49:44.338Z,3.46
2023-02-14T11:53:00.664Z,3.77
2023-02-14T11:56:16.954Z,3.72
2023-02-14T11:59:34.711Z,3.81
2023-02-14T12:02:46.643Z,3.79
2023-02-14T12:06:00.697Z,3.97
2023-02-14T12:09:27.160Z,4.09
2023-02-14T12:12:40.218Z,3.95
2023-02-14T12:15:57.667Z,3.31
2023-02-14T12:19:09.917Z,3.45
2023-02-14T12:22:26.329Z,3.41
2023-02-14T12:25:49.851Z,3.32
2023-02-14T12:29:13.403Z,3.65
2023-02-14T12:32:27.237Z,3.89
2023-02-14T12:36:12.660Z,3.98
2023-02-14T12:39:39.235Z,3.93
2023-02-14T12:43:12.832Z,3.61
2023-02-14T12:47:02.610Z,3.69
2023-02-14T12:50:37.096Z,3.68
2023-02-14T12:54:30.894Z,3.61
2023-02-14T12:57:53.111Z,3.32
2023-02-14T13:01:28.844Z,3.32
2023-02-14T13:05:02.634Z,3.38
2023-02-14T13:08:35.292Z,3.07
2023-02-14T13:12:02.457Z,3.33
2023-02-14T13:15:29.842Z,3.48
2023-02-14T13:18:53.059Z,3.64
2023-02-14T13:22:07.917Z,3.59
2023-02-14T13:25:31.991Z,3.63
2023-02-14T13:28:45.221Z,3.57
2023-02-14T13:31:57.067Z,3.61
2023-02-14T13:35:05.623Z,3.44
2023-02-14T13:38:21.622Z,3.34
2023-02-14T13:41:31.733Z,3.28
2023-02-14T13:44:50.628Z,3.33
2023-02-14T13:48:11.474Z,3.40
2023-02-14T13:51:17.597Z,3.26
2023-02-14T13:54:46.835Z,3.38
2023-02-14T13:58:07.870Z,3.68
2023-02-14T14:01:35.942Z,3.74
2023-02-14T14:04:42.086Z,3.47
2023-02-14T14:07:48.804Z,3.41
2023-02-14T14:11:00.982Z,3.58
2023-02-14T14:14:40.699Z,3.58
2023-02-14T14:17:51.507Z,3.65
2023-02-14T14:20:58.650Z,3.48
2023-02-14T14:24:26.317Z,3.40
2023-02-14T14:27:43.524Z,3.43
2023-02-14T14:30:50.662Z,3.44
2023-02-14T14:34:03.662Z,3.50
2023-02-14T14:37:20.193Z,3.43
2023-02-14T14:40:32.426Z,3.59
2023-02-14T14:43:44.012Z,3.53
2023-02-14T14:46:51.988Z,3.48
2023-02-14T14:50:10.378Z,3.54
2023-02-14T14:53:30.795Z,3.66
2023-02-14T14:56:47.300Z,3.62
2023-02-14T15:00:31.742Z,3.67
2023-02-14T15:03:37.859Z,3.48
2023-02-14T15:06:47.440Z,3.50
2023-02-14T15:09:53.528Z,3.35
2023-02-14T15:13:14.890Z,3.34
2023-02-14T15:16:33.830Z,3.12
2023-02-14T15:19:51.193Z,3.12
2023-02-14T15:22:57.672Z,3.16
2023-02-14T15:26:07.964Z,2.88
2023-02-14T15:29:26.601Z,3.01
2023-02-14T15:32:40.344Z,3.16
2023-02-14T15:35:51.637Z,3.15
2023-02-14T15:39:06.498Z,3.02
2023-02-14T15:42:29.635Z,2.99
2023-02-14T15:45:37.928Z,3.03
2023-02-14T15:48:49.480Z,2.98
2023-02-14T15:51:57.789Z,2.99
2023-02-14T15:55:10.345Z,3.04
2023-02-14T15:58:29.255Z,3.16
2023-02-14T16:01:45.882Z,3.18
2023-02-14T16:05:12.083Z,3.18
2023-02-14T16:08:34.175Z,2.96
2023-02-14T16:11:41.709Z,2.76
2023-02-14T16:15:01.737Z,2.84
2023-02-14T16:18:22.458Z,2.88
2023-02-14T16:21:36.371Z,2.91
2023-02-14T16:24:43.641Z,2.98
2023-02-14T16:27:49.491Z,2.95
2023-02-14T16:31:05.233Z,3.01
2023-02-14T16:34:16.050Z,2.97
2023-02-14T16:37:31.781Z,3.00
2023-02-14T16:40:48.199Z,2.95
2023-02-14T16:43:55.337Z,2.90
2023-02-14T16:47:01.174Z,2.87
2023-02-14T16:50:11.544Z,2.86
2023-02-14T16:53:38.224Z,2.99
2023-02-14T16:56:54.487Z,3.00
2023-02-14T17:00:00.706Z,3.00
2023-02-14T17:03:11.778Z,3.00
2023-02-14T17:06:27.755Z,2.96
2023-02-14T17:09:45.814Z,2.87
2023-02-14T17:12:54.658Z,2.86
2023-02-14T17:16:04.920Z,2.90
2023-02-14T17:19:16.778Z,2.97
2023-02-14T17:22:24.808Z,2.97
2023-02-14T17:25:39.220Z,3.00
2023-02-14T17:28:46.612Z,2.97
2023-02-14T17:31:52.540Z,2.99
2023-02-14T17:35:05.101Z,3.01
2023-02-14T17:38:11.045Z,2.88
2023-02-14T17:41:24.591Z,2.92
2023-02-14T17:44:32.646Z,2.99
2023-02-14T17:47:45.410Z,2.93
2023-02-14T17:50:51.373Z,2.81
2023-02-14T17:53:59.077Z,2.78
2023-02-14T17:57:07.848Z,2.76
2023-02-14T18:00:16.837Z,2.76
2023-02-14T18:03:24.060Z,2.75
2023-02-14T18:06:36.794Z,2.72
2023-02-14T18:09:47.615Z,2.74
2023-02-14T18:12:56.920Z,2.72
2023-02-14T18:16:12.910Z,2.75
2023-02-14T18:19:19.831Z,2.71
2023-02-14T18:22:27.331Z,2.76
2023-02-14T18:25:40.446Z,2.84
2023-02-14T18:28:51.108Z,2.91
2023-02-14T18:31:59.365Z,2.89
2023-02-14T18:35:05.258Z,2.90
2023-02-14T18:38:12.741Z,2.81
2023-02-14T18:41:24.622Z,2.77
2023-02-14T18:44:34.476Z,2.85
2023-02-14T18:47:40.371Z,2.86
2023-02-14T18:50:47.178Z,2.88
2023-02-14T18:53:55.612Z,2.87
2023-02-14T18:57:08.597Z,2.83
2023-02-14T19:00:23.146Z,2.83
2023-02-14T19:03:40.923Z,2.72
2023-02-14T19:06:46.865Z,2.73
2023-02-14T19:09:54.046Z,2.82
2023-02-14T19:13:00.106Z,2.68
2023-02-14T19:16:20.701Z,2.71
2023-02-14T19:19:26.599Z,2.70
2023-02-14T19:22:33.319Z,2.78
2023-02-14T19:25:42.925Z,2.71
2023-02-14T19:28:53.367Z,2.66
2023-02-14T19:32:03.907Z,2.66
2023-02-14T19:35:12.067Z,2.59
2023-02-14T19:38:17.841Z,2.65
2023-02-14T19:41:30.023Z,2.69
2023-02-14T19:44:35.820Z,2.77
2023-02-14T19:47:47.425Z,2.70
2023-02-14T19:50:55.376Z,2.68
2023-02-14T19:54:05.990Z,2.68
2023-02-14T19:57:18.002Z,2.63
2023-02-14T20:00:25.242Z,2.65
2023-02-14T20:03:42.910Z,2.67
2023-02-14T20:06:51.256Z,2.60
2023-02-14T20:09:57.855Z,2.60
2023-02-14T20:13:16.566Z,2.59
2023-02-14T20:16:23.275Z,2.57
2023-02-14T20:19:38.135Z,2.60
2023-02-14T20:22:44.551Z,2.55
2023-02-14T20:25:51.198Z,2.58
2023-02-14T20:28:57.823Z,2.42
2023-02-14T20:32:05.076Z,2.43
2023-02-14T20:35:13.675Z,2.49
2023-02-14T20:38:20.596Z,2.51
2023-02-14T20:41:27.871Z,2.61
2023-02-14T20:44:34.922Z,2.65
2023-02-14T20:47:40.782Z,2.54
2023-02-14T20:50:50.278Z,2.62
2023-02-14T20:53:57.179Z,2.63
2023-02-14T20:57:03.873Z,2.50
2023-02-14T21:00:12.297Z,2.51
2023-02-14T21:03:18.938Z,2.52
2023-02-14T21:06:31.638Z,2.43
2023-02-14T21:09:38.736Z,2.47
2023-02-14T21:12:44.703Z,2.35
2023-02-14T21:15:51.442Z,2.30
2023-02-14T21:19:01.366Z,2.29
2023-02-14T21:22:10.889Z,2.29
2023-02-14T21:25:16.717Z,2.32
2023-02-14T21:28:23.437Z,2.27
2023-02-14T21:31:29.461Z,2.31
2023-02-14T21:34:36.751Z,2.35
2023-02-14T21:37:45.320Z,2.29
2023-02-14T21:40:52.048Z,2.21
2023-02-14T21:43:59.385Z,2.23
2023-02-14T21:47:06.050Z,2.29
2023-02-14T21:50:26.142Z,2.32
2023-02-14T21:53:36.640Z,2.29
2023-02-14T21:56:44.418Z,2.22
2023-02-14T21:59:51.211Z,2.19
2023-02-14T22:02:57.172Z,2.14
2023-02-14T22:06:08.941Z,2.20
2023-02-14T22:09:19.156Z,2.24
2023-02-14T22:12:25.829Z,2.24
2023-02-14T22:15:31.702Z,2.12
2023-02-14T22:18:38.834Z,2.21
2023-02-14T22:21:46.426Z,2.21
2023-02-14T22:24:55.705Z,2.19
2023-02-14T22:28:02.439Z,2.19
2023-02-14T22:31:10.072Z,2.06
2023-02-14T22:34:20.016Z,1.91
2023-02-14T22:37:29.705Z,1.99
2023-02-14T22:40:39.289Z,2.02
2023-02-14T22:43:47.400Z,2.08
2023-02-14T22:46:53.347Z,2.06
2023-02-14T22:50:01.164Z,2.00
2023-02-14T22:53:07.795Z,1.93
2023-02-14T22:56:21.484Z,2.02
2023-02-14T22:59:32.363Z,2.02
2023-02-14T23:02:39.110Z,2.06
2023-02-14T23:05:44.962Z,2.00
2023-02-14T23:08:51.985Z,1.78
2023-02-14T23:12:00.469Z,1.53
2023-02-14T23:15:19.942Z,1.29
2023-02-14T23:18:38.174Z,1.37
2023-02-14T23:21:59.676Z,1.41
2023-02-14T23:25:10.656Z,1.42
2023-02-14T23:28:20.019Z,1.36
2023-02-14T23:31:25.995Z,1.51
2023-02-14T23:34:37.187Z,1.66
2023-02-14T23:37:42.993Z,1.69
2023-02-14T23:41:02.011Z,1.53
2023-02-14T23:44:11.284Z,1.56
2023-02-14T23:47:18.931Z,1.61
2023-02-14T23:50:25.065Z,1.61
2023-02-14T23:53:31.694Z,1.64
2023-02-14T23:56:38.191Z,1.60
2023-02-14T23:59:47.475Z,1.62
